Terminal Aerodrome Forecast
Issued by NWS

Home | Current Version | Previous Version | Text Only | Print | Product List | Glossary On
Versions: 1 2 3 4 5 6 7 8 9 10 11 12 13 14 15 16
000
FTUS45 KRIW 011132
TAFJAC
TAF
KJAC 011132Z 0112/0212 02013KT P6SM FEW050 SCT200
     FM011500 36006KT P6SM SCT080
     FM011700 01010KT P6SM SCT050
     FM020300 36007KT P6SM SCT250
      AMD LTD TO CLD VIS AND WIND=

USA.gov is the U.S. government's official web portal to all federal, state and local government web resources and services.